Time;durP1;ratioP1;P1;durP2;ratioP2;P2;SDS_P1;SDS_P2;PMS_P1;PMS_P2;Temp;Humidity;BMP_temperature;BMP_pressure;BME280_temperature;BME280_humidity;BME280_pressure;Samples;Min_cycle;Max_cycle;Signal;HPM_P1;HPM_P2
2022/09/29 00:02:16;;;;;;;17.90;14.53;;;;;;;6.69;100.00;99850.56;5028684;28;20362;-88
2022/09/29 00:04:41;;;;;;;16.70;14.00;;;;;;;6.69;100.00;99843.31;5020505;28;20079;-88
2022/09/29 00:07:07;;;;;;;19.37;14.63;;;;;;;6.63;100.00;99849.53;5030007;28;20025;-89
2022/09/29 00:09:32;;;;;;;20.20;16.40;;;;;;;6.57;100.00;99845.81;5004240;28;20533;-88
2022/09/29 00:11:57;;;;;;;21.83;16.47;;;;;;;6.59;100.00;99843.75;5029756;28;20033;-88
2022/09/29 00:14:23;;;;;;;21.60;15.43;;;;;;;6.64;100.00;99845.00;5031902;28;20049;-88
2022/09/29 00:16:49;;;;;;;18.10;15.40;;;;;;;6.65;100.00;99852.00;5032717;28;20039;-88
2022/09/29 00:19:15;;;;;;;17.37;14.17;;;;;;;6.59;100.00;99843.75;5033264;28;20436;-87
2022/09/29 00:21:41;;;;;;;18.07;14.17;;;;;;;6.62;100.00;99852.44;5033206;28;20056;-88
2022/09/29 00:24:06;;;;;;;18.67;15.20;;;;;;;6.56;100.00;99849.53;5033041;28;20091;-88
2022/09/29 00:26:32;;;;;;;18.67;15.23;;;;;;;6.51;100.00;99849.34;5032674;28;20168;-88
2022/09/29 00:28:59;;;;;;;20.73;16.10;;;;;;;6.48;100.00;99844.38;5032194;28;20076;-88
2022/09/29 00:31:27;;;;;;;21.50;17.07;;;;;;;6.51;100.00;99840.44;5033221;28;20033;-88
2022/09/29 00:33:52;;;;;;;24.80;17.77;;;;;;;6.48;100.00;99832.81;5032369;28;20610;-88
2022/09/29 00:36:19;;;;;;;23.87;18.27;;;;;;;6.52;100.00;99844.81;5007908;28;20041;-87
2022/09/29 00:38:46;;;;;;;23.87;18.03;;;;;;;6.49;100.00;99846.03;5031672;28;20043;-88
2022/09/29 00:41:18;;;;;;;22.80;16.47;;;;;;;6.42;100.00;99842.56;5031954;28;20105;-87
2022/09/29 00:43:46;;;;;;;20.33;15.63;;;;;;;6.43;100.00;99838.78;5031562;28;20041;-88
2022/09/29 00:46:13;;;;;;;17.50;14.90;;;;;;;6.38;100.00;99835.94;5032413;28;20045;-87
2022/09/29 00:48:39;;;;;;;19.97;12.73;;;;;;;6.25;100.00;99834.88;5032871;28;20048;-87
2022/09/29 00:51:05;;;;;;;16.53;11.63;;;;;;;6.17;100.00;99842.34;5032824;28;20128;-88
2022/09/29 00:53:31;;;;;;;13.90;10.77;;;;;;;6.03;100.00;99839.66;5013545;28;20369;-87
2022/09/29 00:56:12;;;;;;;14.13;11.10;;;;;;;6.08;100.00;99841.75;5023036;28;20049;-87
2022/09/29 00:58:53;;;;;;;12.30;10.67;;;;;;;5.98;100.00;99844.00;5032939;28;20017;-87
2022/09/29 01:01:19;;;;;;;14.00;11.27;;;;;;;6.00;100.00;99845.47;5032907;28;20111;-88
2022/09/29 01:03:46;;;;;;;14.17;11.40;;;;;;;5.98;100.00;99846.69;5031993;28;20067;-87
2022/09/29 01:06:20;;;;;;;13.50;11.10;;;;;;;5.70;100.00;99829.69;5022570;28;20044;-88
2022/09/29 01:08:57;;;;;;;12.85;10.68;;;;;;;5.78;100.00;99835.88;5031440;28;20566;-88
2022/09/29 01:11:23;;;;;;;14.57;11.20;;;;;;;5.76;100.00;99838.78;5032333;28;20099;-88
2022/09/29 01:13:49;;;;;;;14.67;10.10;;;;;;;5.69;100.00;99837.97;5031877;28;20046;-88
2022/09/29 01:16:15;;;;;;;12.63;10.40;;;;;;;5.67;100.00;99832.78;5032470;28;20115;-88
2022/09/29 01:18:42;;;;;;;16.70;12.57;;;;;;;5.63;100.00;99822.63;5032487;28;20045;-88
2022/09/29 01:21:24;;;;;;;16.13;12.60;;;;;;;5.72;100.00;99834.84;5031348;28;20285;-88
2022/09/29 01:24:23;;;;;;;16.10;13.07;;;;;;;5.74;100.00;99841.69;5030961;28;20048;-88
2022/09/29 01:27:07;;;;;;;16.00;12.57;;;;;;;5.71;100.00;99835.88;5031469;28;20091;-88
2022/09/29 01:29:48;;;;;;;15.83;12.67;;;;;;;5.69;100.00;99843.34;5031864;28;20075;-88
2022/09/29 01:32:25;;;;;;;17.90;13.90;;;;;;;5.73;100.00;99845.41;5031954;28;20399;-88
2022/09/29 01:35:03;;;;;;;14.07;12.53;;;;;;;5.67;100.00;99840.84;5030594;28;20064;-88
2022/09/29 01:37:52;;;;;;;19.43;12.77;;;;;;;5.65;100.00;99842.09;5030869;28;20029;-88
2022/09/29 01:40:28;;;;;;;16.20;12.80;;;;;;;5.59;100.00;99827.59;5031840;28;20075;-88
2022/09/29 01:43:03;;;;;;;14.97;12.00;;;;;;;5.55;100.00;99840.63;5031533;28;20400;-88
2022/09/29 01:45:32;;;;;;;14.60;11.30;;;;;;;5.51;100.00;99841.25;5031851;28;20044;-88
2022/09/29 01:48:04;;;;;;;16.40;12.80;;;;;;;5.57;100.00;99835.03;5030724;28;20041;-88
2022/09/29 01:50:37;;;;;;;14.73;12.77;;;;;;;5.55;100.00;99843.31;5030958;28;20044;-89
2022/09/29 01:53:14;;;;;;;19.13;14.87;;;;;;;5.65;100.00;99847.47;5031508;28;20489;-89
2022/09/29 01:55:51;;;;;;;19.50;15.40;;;;;;;5.64;100.00;99843.94;5021653;28;20423;-88
2022/09/29 01:58:36;;;;;;;19.07;15.67;;;;;;;5.61;100.00;99852.41;5031910;28;20615;-89
2022/09/29 02:01:05;;;;;;;20.10;16.43;;;;;;;5.67;100.00;99842.69;5030159;28;21436;-88
2022/09/29 02:03:37;;;;;;;18.20;14.90;;;;;;;5.54;100.00;99838.13;5030970;28;20048;-88
2022/09/29 02:06:10;;;;;;;18.27;16.17;;;;;;;5.58;100.00;99847.44;5030827;28;20142;-89
2022/09/29 02:08:49;;;;;;;20.00;16.23;;;;;;;5.56;100.00;99847.66;5031372;28;20469;-89
2022/09/29 02:11:16;;;;;;;21.13;15.93;;;;;;;5.49;100.00;99833.34;5031425;28;20430;-88
2022/09/29 02:13:41;;;;;;;18.97;15.20;;;;;;;5.60;100.00;99840.00;5030729;28;20470;-88
2022/09/29 02:16:16;;;;;;;17.23;14.90;;;;;;;5.46;100.00;99833.75;5027642;28;20045;-88
2022/09/29 02:18:51;;;;;;;17.47;13.93;;;;;;;5.50;100.00;99842.25;5031049;28;20559;-88
2022/09/29 02:21:17;;;;;;;15.87;14.13;;;;;;;5.48;100.00;99850.53;5030516;28;20103;-88
2022/09/29 02:23:42;;;;;;;17.40;13.90;;;;;;;5.40;100.00;99834.59;5030529;28;20448;-89
2022/09/29 02:26:10;;;;;;;15.90;14.27;;;;;;;5.45;100.00;99847.41;5031323;28;20072;-89
2022/09/29 02:28:36;;;;;;;17.20;14.17;;;;;;;5.39;100.00;99846.38;5004643;28;20178;-89
2022/09/29 02:31:02;;;;;;;17.43;14.60;;;;;;;5.36;100.00;99850.28;5030439;28;20042;-89
2022/09/29 02:33:27;;;;;;;21.90;17.10;;;;;;;5.39;100.00;99857.09;5031123;28;20105;-91
2022/09/29 02:35:56;;;;;;;19.20;16.70;;;;;;;5.32;100.00;99850.91;5029341;28;20476;-89
2022/09/29 02:39:26;;;;;;;18.13;16.23;;;;;;;5.37;100.00;99851.09;5030541;28;20086;-89
2022/09/29 02:42:03;;;;;;;20.23;16.77;;;;;;;5.34;100.00;99851.50;4998145;28;20473;-88
2022/09/29 02:44:40;;;;;;;19.00;17.00;;;;;;;5.30;100.00;99851.06;5029740;28;20026;-89
2022/09/29 02:47:22;;;;;;;19.60;17.10;;;;;;;5.29;100.00;99853.97;5030710;28;20115;-89
2022/09/29 02:50:08;;;;;;;18.83;15.53;;;;;;;5.26;100.00;99859.75;5029894;28;20032;-88
2022/09/29 02:52:44;;;;;;;17.50;15.50;;;;;;;5.24;100.00;99858.09;5029969;28;20041;-88
2022/09/29 02:55:37;;;;;;;19.10;16.03;;;;;;;5.29;100.00;99853.97;5029672;28;20039;-89
2022/09/29 02:58:11;;;;;;;16.03;14.30;;;;;;;5.11;100.00;99855.34;5021499;28;20032;-88
2022/09/29 03:00:38;;;;;;;16.13;14.43;;;;;;;5.10;100.00;99847.50;5030142;28;20037;-88
2022/09/29 03:03:03;;;;;;;16.07;13.87;;;;;;;5.07;100.00;99846.88;5030250;28;20377;-88
2022/09/29 03:05:30;;;;;;;16.10;14.10;;;;;;;4.87;100.00;99841.41;5030417;28;20065;-88
2022/09/29 03:07:55;;;;;;;15.07;13.47;;;;;;;5.05;100.00;99850.78;5030272;28;20384;-88
2022/09/29 03:10:20;;;;;;;14.20;12.70;;;;;;;4.86;100.00;99855.84;5029311;28;20041;-87
2022/09/29 03:12:46;;;;;;;14.30;12.80;;;;;;;4.89;100.00;99854.63;5028494;28;20037;-88
2022/09/29 03:15:12;;;;;;;15.37;13.77;;;;;;;4.87;100.00;99856.69;5029121;28;20059;-88
2022/09/29 03:17:38;;;;;;;14.93;12.67;;;;;;;4.86;100.00;99850.47;5030150;28;20033;-88
2022/09/29 03:20:04;;;;;;;15.27;13.63;;;;;;;4.89;100.00;99855.44;5021366;28;20065;-88
2022/09/29 03:22:29;;;;;;;16.57;14.87;;;;;;;4.88;100.00;99851.13;5028567;28;20171;-88
2022/09/29 03:24:55;;;;;;;17.27;14.80;;;;;;;4.90;100.00;99854.44;5029368;28;20040;-88
2022/09/29 03:27:20;;;;;;;18.13;16.23;;;;;;;4.90;100.00;99853.59;5029677;28;20500;-88
2022/09/29 03:29:45;;;;;;;19.73;17.57;;;;;;;4.91;100.00;99849.91;5026956;28;20047;-88
2022/09/29 03:32:11;;;;;;;20.97;18.60;;;;;;;4.94;100.00;99854.88;5029358;28;20076;-88
2022/09/29 03:34:36;;;;;;;20.73;17.77;;;;;;;4.85;100.00;99838.09;5004627;28;20151;-87
2022/09/29 03:37:01;;;;;;;19.63;17.53;;;;;;;4.82;100.00;99841.19;5029218;28;20033;-87
2022/09/29 03:39:27;;;;;;;18.77;16.73;;;;;;;4.85;100.00;99851.50;5029518;28;20497;-86
2022/09/29 03:41:53;;;;;;;20.03;16.70;;;;;;;4.75;100.00;99840.31;5029897;28;20630;-87
2022/09/29 03:44:18;;;;;;;18.30;16.40;;;;;;;4.81;100.00;99842.19;5029556;28;20161;-87
2022/09/29 03:46:45;;;;;;;18.87;16.47;;;;;;;4.78;100.00;99847.97;5030479;28;20079;-87
2022/09/29 03:49:11;;;;;;;19.13;17.13;;;;;;;4.80;100.00;99840.56;5032950;28;20036;-87
2022/09/29 03:51:37;;;;;;;19.43;17.33;;;;;;;4.77;100.00;99846.31;5025133;28;20123;-87
2022/09/29 03:54:03;;;;;;;20.77;18.60;;;;;;;4.78;100.00;99847.16;5033715;28;20127;-88
2022/09/29 03:56:28;;;;;;;23.27;20.77;;;;;;;4.84;100.00;99847.19;5033572;28;20045;-88
2022/09/29 03:58:53;;;;;;;23.13;20.40;;;;;;;4.85;100.00;99851.50;5033144;28;20120;-88
2022/09/29 04:01:19;;;;;;;23.00;20.50;;;;;;;4.82;100.00;99854.59;5032707;28;20146;-87
2022/09/29 04:03:44;;;;;;;23.43;20.97;;;;;;;4.82;100.00;99851.91;5032463;28;20197;-87
2022/09/29 04:06:10;;;;;;;22.03;19.73;;;;;;;4.77;100.00;99848.16;5033083;28;20805;-87
2022/09/29 04:08:36;;;;;;;22.50;19.53;;;;;;;4.74;100.00;99852.06;5033033;28;21608;-88
2022/09/29 04:11:02;;;;;;;20.30;18.20;;;;;;;4.79;100.00;99859.56;5032772;28;20087;-88
2022/09/29 04:13:27;;;;;;;20.80;18.60;;;;;;;4.80;100.00;99859.34;5033555;28;20040;-87
2022/09/29 04:16:00;;;;;;;22.10;19.80;;;;;;;4.79;100.00;99863.06;5032041;28;20045;-88
2022/09/29 04:18:26;;;;;;;21.67;19.37;;;;;;;4.82;100.00;99859.97;5032656;28;20456;-88
2022/09/29 04:20:51;;;;;;;21.73;19.43;;;;;;;4.81;100.00;99874.41;5032499;28;20041;-88
2022/09/29 04:23:17;;;;;;;21.57;19.03;;;;;;;4.79;100.00;99865.72;5007665;28;20512;-88
2022/09/29 04:25:45;;;;;;;24.10;20.03;;;;;;;4.76;100.00;99871.50;5031802;28;20379;-87
2022/09/29 04:28:11;;;;;;;21.30;19.10;;;;;;;4.74;100.00;99873.53;5033074;28;20028;-87
2022/09/29 04:30:37;;;;;;;20.93;18.73;;;;;;;4.79;100.00;99884.53;5032017;28;20029;-87
2022/09/29 04:33:02;;;;;;;21.50;19.30;;;;;;;4.77;100.00;99883.06;5032082;28;20044;-87
2022/09/29 04:35:28;;;;;;;21.73;19.53;;;;;;;4.76;100.00;99886.75;5007384;28;20068;-87
2022/09/29 04:37:56;;;;;;;21.87;18.87;;;;;;;4.71;100.00;99882.00;5031899;28;20140;-87
2022/09/29 04:40:22;;;;;;;20.83;18.67;;;;;;;4.68;100.00;99874.34;5032027;28;20055;-87
2022/09/29 04:42:47;;;;;;;21.20;19.00;;;;;;;4.51;100.00;99858.53;5031945;28;20043;-87
2022/09/29 04:45:13;;;;;;;23.37;20.97;;;;;;;4.68;100.00;99885.09;5031637;28;20048;-87
2022/09/29 04:47:38;;;;;;;21.87;19.50;;;;;;;4.69;100.00;99881.34;5032422;28;20375;-87
2022/09/29 04:50:04;;;;;;;23.20;20.77;;;;;;;4.70;100.00;99888.38;5031914;28;20037;-87
2022/09/29 04:52:29;;;;;;;22.77;20.17;;;;;;;4.64;100.00;99891.88;5024420;28;20040;-87
2022/09/29 04:54:54;;;;;;;23.23;20.83;;;;;;;4.64;100.00;99886.50;5031865;28;20076;-87
2022/09/29 04:57:21;;;;;;;23.00;20.07;;;;;;;4.58;100.00;99877.34;5031816;28;20132;-87
2022/09/29 04:59:46;;;;;;;21.13;18.77;;;;;;;4.64;100.00;99897.22;5030744;28;20048;-87
2022/09/29 05:02:11;;;;;;;22.20;19.90;;;;;;;4.55;100.00;99886.63;5032693;28;20036;-87
2022/09/29 05:04:37;;;;;;;21.87;19.13;;;;;;;4.61;100.00;99894.91;5032006;28;20048;-87
2022/09/29 05:07:02;;;;;;;20.60;18.40;;;;;;;4.45;100.00;99885.31;5007660;28;20033;-87
2022/09/29 05:09:28;;;;;;;22.07;19.70;;;;;;;4.55;100.00;99897.34;5031975;28;20040;-87
2022/09/29 05:11:53;;;;;;;23.17;20.70;;;;;;;4.50;100.00;99882.88;5031978;28;20087;-86
2022/09/29 05:14:18;;;;;;;23.27;20.43;;;;;;;4.54;100.00;99900.25;5030680;28;20056;-87
2022/09/29 05:16:44;;;;;;;26.30;20.30;;;;;;;4.53;100.00;99899.41;5032191;28;20045;-87
2022/09/29 05:19:09;;;;;;;23.13;20.60;;;;;;;4.51;100.00;99903.31;5032809;28;20041;-87
2022/09/29 05:21:35;;;;;;;23.70;21.13;;;;;;;4.47;100.00;99889.47;5031887;28;20385;-86
2022/09/29 05:24:00;;;;;;;22.73;20.33;;;;;;;4.45;100.00;99899.56;5030537;28;20047;-87
2022/09/29 05:26:26;;;;;;;23.73;21.23;;;;;;;4.49;100.00;99914.25;5032079;28;20116;-87
2022/09/29 05:28:51;;;;;;;24.33;21.57;;;;;;;4.49;100.00;99905.38;5031144;28;20358;-87
2022/09/29 05:31:17;;;;;;;23.37;20.90;;;;;;;4.48;100.00;99917.13;5031731;28;20029;-87
2022/09/29 05:33:42;;;;;;;23.80;21.33;;;;;;;4.46;100.00;99924.53;5030875;28;20037;-88
2022/09/29 05:36:09;;;;;;;23.33;20.60;;;;;;;4.43;100.00;99922.25;5030839;28;20135;-88
2022/09/29 05:38:35;;;;;;;23.40;20.80;;;;;;;4.40;100.00;99931.50;5030825;28;20034;-88
2022/09/29 05:41:06;;;;;;;23.27;20.87;;;;;;;4.38;100.00;99928.19;5006212;28;20045;-88
2022/09/29 05:43:31;;;;;;;24.10;21.53;;;;;;;4.44;100.00;99937.31;5031504;28;20265;-88
2022/09/29 05:46:01;;;;;;;24.93;22.37;;;;;;;4.44;100.00;99937.31;5030850;28;20029;-88
2022/09/29 05:48:29;;;;;;;23.70;20.83;;;;;;;4.43;100.00;99936.47;5032240;28;20166;-88
2022/09/29 05:50:55;;;;;;;24.47;21.10;;;;;;;4.44;100.00;99938.13;5031352;28;21661;-88
2022/09/29 05:53:21;;;;;;;24.67;22.07;;;;;;;4.41;100.00;99930.50;5031494;28;20124;-88
2022/09/29 05:55:46;;;;;;;25.10;22.37;;;;;;;4.44;100.00;99931.94;5005185;28;20364;-88
2022/09/29 05:58:11;;;;;;;24.53;21.93;;;;;;;4.47;100.00;99939.59;5005564;28;20061;-88
2022/09/29 06:00:37;;;;;;;23.90;21.10;;;;;;;4.47;100.00;99940.44;5031512;28;20125;-88
2022/09/29 06:03:02;;;;;;;23.50;21.10;;;;;;;4.44;100.00;99943.50;5031319;28;20071;-88
2022/09/29 06:05:28;;;;;;;24.43;21.77;;;;;;;4.52;100.00;99938.00;5029870;28;20044;-88
2022/09/29 06:07:54;;;;;;;27.00;23.07;;;;;;;4.51;100.00;99943.56;5005905;28;20036;-88
2022/09/29 06:10:20;;;;;;;24.27;21.53;;;;;;;4.57;100.00;99953.53;5030066;28;20583;-89
2022/09/29 06:12:45;;;;;;;22.77;20.43;;;;;;;4.48;100.00;99944.78;5030518;28;20040;-88
2022/09/29 06:15:11;;;;;;;24.20;21.70;;;;;;;4.54;100.00;99949.38;5030892;28;20327;-88
2022/09/29 06:17:37;;;;;;;24.17;21.77;;;;;;;4.61;100.00;99948.59;5012947;28;20065;-88
2022/09/29 06:20:04;;;;;;;24.90;22.33;;;;;;;4.65;100.00;99960.59;5031012;28;20170;-88
2022/09/29 06:22:29;;;;;;;24.07;21.47;;;;;;;4.62;100.00;99955.63;5030706;28;20408;-89
2022/09/29 06:24:55;;;;;;;25.47;22.50;;;;;;;4.69;100.00;99956.47;5030950;28;20029;-89
2022/09/29 06:27:21;;;;;;;24.17;21.73;;;;;;;4.76;100.00;99959.22;5031248;28;20041;-89
2022/09/29 06:29:46;;;;;;;24.03;21.63;;;;;;;4.69;100.00;99935.88;5030725;28;20365;-88
2022/09/29 06:32:12;;;;;;;25.93;23.23;;;;;;;4.82;100.00;99959.28;5031058;28;20065;-89
2022/09/29 06:37:33;;;;;;;26.23;23.30;;;;;;;4.89;100.00;99967.38;5030794;28;20091;-89
2022/09/29 06:37:35;;;;;;;25.77;23.10;;;;;;;4.94;100.00;99972.13;5030482;28;20049;-89
2022/09/29 06:40:07;;;;;;;26.07;23.57;;;;;;;4.96;100.00;99972.78;5030323;28;20037;-91
2022/09/29 06:42:33;;;;;;;26.10;23.50;;;;;;;4.96;100.00;99972.78;5030894;28;20060;-90
2022/09/29 06:44:59;;;;;;;26.63;23.30;;;;;;;5.02;100.00;99978.19;5031036;28;20029;-89
2022/09/29 06:47:24;;;;;;;25.93;23.23;;;;;;;5.09;100.00;99983.63;5029914;28;20041;-89
2022/09/29 06:49:50;;;;;;;26.40;23.77;;;;;;;5.15;100.00;99976.63;5030355;28;20500;-89
2022/09/29 06:52:16;;;;;;;25.80;23.10;;;;;;;5.17;100.00;99980.78;5030014;28;20720;-90
2022/09/29 06:54:42;;;;;;;25.87;23.27;;;;;;;5.22;100.00;99977.47;5029740;28;20047;-88
2022/09/29 06:57:08;;;;;;;24.77;22.33;;;;;;;5.26;100.00;99969.88;5005535;28;20045;-88
2022/09/29 06:59:34;;;;;;;28.10;23.03;;;;;;;5.29;100.00;99967.63;5030569;28;20166;-89
2022/09/29 07:01:59;;;;;;;25.27;22.67;;;;;;;5.53;100.00;99990.44;5004281;28;20524;-88
2022/09/29 07:04:24;;;;;;;25.53;23.03;;;;;;;5.68;100.00;99990.31;5030338;28;20040;-88
2022/09/29 07:06:50;;;;;;;25.77;23.03;;;;;;;5.83;100.00;99995.53;5030096;28;20037;-88
2022/09/29 07:09:16;;;;;;;24.57;21.80;;;;;;;5.91;100.00;99997.22;5030670;28;20026;-89
2022/09/29 07:11:48;;;;;;;24.90;22.33;;;;;;;6.01;100.00;100005.78;5030365;28;20037;-89
2022/09/29 07:14:18;;;;;;;24.83;22.27;;;;;;;6.16;100.00;99999.38;5012462;28;20056;-88
2022/09/29 07:16:43;;;;;;;24.30;21.43;;;;;;;6.33;100.00;100002.53;5029381;28;20381;-87
2022/09/29 07:19:09;;;;;;;25.87;23.30;;;;;;;6.52;100.00;100006.28;5029981;28;20045;-87
2022/09/29 07:21:35;;;;;;;24.87;22.23;;;;;;;6.59;100.00;100005.25;5030249;28;20045;-87
2022/09/29 07:24:00;;;;;;;23.40;20.90;;;;;;;6.79;100.00;100015.19;5021581;28;20115;-88
2022/09/29 07:26:26;;;;;;;23.27;20.73;;;;;;;6.73;100.00;100003.41;5030188;28;20039;-88
2022/09/29 07:28:51;;;;;;;22.47;19.87;;;;;;;7.03;100.00;100011.03;5029808;28;20587;-88
2022/09/29 07:31:19;;;;;;;21.03;18.40;;;;;;;7.04;100.00;100009.16;5029250;28;20075;-89
2022/09/29 07:33:47;;;;;;;21.93;19.63;;;;;;;7.26;100.00;100021.38;5028443;28;20055;-89
2022/09/29 07:36:14;;;;;;;22.20;18.43;;;;;;;7.18;100.00;100013.50;5029847;28;20132;-89
2022/09/29 07:38:39;;;;;;;23.63;19.60;;;;;;;7.43;100.00;100023.59;5029866;28;20175;-88
2022/09/29 07:41:08;;;;;;;23.20;19.30;;;;;;;7.47;100.00;100021.31;5029420;28;20124;-88
2022/09/29 07:43:33;;;;;;;24.30;18.83;;;;;;;7.54;100.00;100022.94;5004912;28;20473;-88
2022/09/29 07:45:59;;;;;;;24.47;20.50;;;;;;;7.76;100.00;100025.34;5029270;28;20087;-87
2022/09/29 07:48:26;;;;;;;24.30;19.07;;;;;;;8.02;100.00;100029.81;5030040;28;20223;-87
2022/09/29 07:50:51;;;;;;;24.20;19.23;;;;;;;8.15;100.00;100023.53;5021108;28;20054;-87
2022/09/29 07:53:17;;;;;;;23.97;19.03;;;;;;;8.43;100.00;100023.16;5011973;28;20370;-87
2022/09/29 07:55:43;;;;;;;22.03;17.30;;;;;;;8.54;99.05;100032.47;5029086;28;20094;-87
2022/09/29 07:58:08;;;;;;;23.93;18.17;;;;;;;8.82;100.00;100028.50;5029756;28;20037;-87
2022/09/29 08:00:34;;;;;;;23.47;17.17;;;;;;;9.02;98.22;100032.91;5030143;28;20040;-89
2022/09/29 08:03:08;;;;;;;21.27;17.07;;;;;;;9.33;97.59;100033.84;5029334;28;20119;-87
2022/09/29 08:05:34;;;;;;;23.85;16.23;;;;;;;9.53;97.87;100039.88;5029624;28;20033;-88
2022/09/29 08:08:00;;;;;;;23.80;17.33;;;;;;;9.83;97.05;100049.13;5029448;28;20040;-87
2022/09/29 08:10:27;;;;;;;20.67;14.73;;;;;;;9.93;93.79;100050.25;5029809;28;20701;-88
2022/09/29 08:12:53;;;;;;;23.30;15.67;;;;;;;10.22;94.51;100058.63;5004733;28;20033;-87
2022/09/29 08:15:19;;;;;;;20.33;14.73;;;;;;;10.59;93.72;100058.56;5029606;28;20152;-88
2022/09/29 08:17:45;;;;;;;17.20;13.10;;;;;;;10.63;88.57;100064.34;5029313;28;20126;-88
2022/09/29 08:20:10;;;;;;;20.10;14.23;;;;;;;10.94;90.30;100060.50;5027099;28;20548;-87
2022/09/29 08:22:35;;;;;;;19.23;13.97;;;;;;;11.12;88.57;100067.75;5023248;28;20025;-87
2022/09/29 08:25:01;;;;;;;19.43;13.47;;;;;;;11.15;84.52;100064.56;5025267;28;20037;-88
2022/09/29 08:27:28;;;;;;;19.40;13.57;;;;;;;11.49;86.63;100067.50;5024911;28;20488;-88
2022/09/29 08:29:53;;;;;;;15.97;12.37;;;;;;;11.63;85.74;100070.78;5025127;28;20527;-89
2022/09/29 08:32:18;;;;;;;19.27;13.50;;;;;;;11.72;83.28;100075.84;5024777;28;20051;-88
2022/09/29 08:34:44;;;;;;;16.47;11.63;;;;;;;12.08;84.01;100074.72;5027685;28;21392;-87
2022/09/29 08:37:10;;;;;;;17.37;12.83;;;;;;;12.22;82.48;100080.69;5028801;28;21004;-89
2022/09/29 08:39:36;;;;;;;19.70;13.40;;;;;;;12.36;81.02;100075.00;5004445;28;20111;-88
2022/09/29 08:42:17;;;;;;;16.67;11.97;;;;;;;12.48;82.09;100089.34;5005026;28;20441;-87
2022/09/29 08:44:57;;;;;;;17.60;13.10;;;;;;;12.54;79.64;100091.09;5028319;28;20025;-88
2022/09/29 08:47:27;;;;;;;17.00;12.03;;;;;;;12.55;78.19;100094.63;5029014;28;20044;-89
2022/09/29 08:49:56;;;;;;;16.77;12.20;;;;;;;12.55;78.33;100098.19;5028346;28;20032;-88
2022/09/29 08:52:30;;;;;;;14.73;11.17;;;;;;;12.73;81.90;100091.72;5027894;28;20431;-88
2022/09/29 08:55:21;;;;;;;14.70;11.63;;;;;;;12.69;79.33;100093.28;5028374;28;20048;-88
2022/09/29 08:57:47;;;;;;;14.53;11.33;;;;;;;13.03;79.00;100100.63;5026758;28;20045;-89
2022/09/29 09:00:16;;;;;;;12.67;10.57;;;;;;;13.20;78.09;100084.34;5029113;28;20354;-89
2022/09/29 09:02:48;;;;;;;14.27;10.60;;;;;;;13.31;76.89;100097.84;5027546;28;20029;-88
2022/09/29 09:05:22;;;;;;;15.97;11.40;;;;;;;13.17;77.12;100094.63;5027192;28;20076;-89
2022/09/29 09:07:50;;;;;;;;;;;;;;;13.92;78.82;100101.72;5029089;28;20353;-87
2022/09/29 09:10:30;;;;;;;15.77;11.20;;;;;;;13.45;76.91;100089.34;5028641;28;20415;-87
2022/09/29 09:13:06;;;;;;;17.83;11.80;;;;;;;13.61;76.22;100095.84;5016890;28;20610;-89
2022/09/29 09:15:34;;;;;;;17.40;11.03;;;;;;;13.87;75.39;100107.09;5027982;28;20121;-88
2022/09/29 09:18:11;;;;;;;14.60;10.40;;;;;;;14.06;75.18;100107.63;5026800;28;20051;-88
2022/09/29 09:20:54;;;;;;;11.07;8.83;;;;;;;14.30;73.93;100102.72;5027668;28;20124;-89
2022/09/29 09:23:43;;;;;;;11.73;9.40;;;;;;;14.30;74.93;100106.28;5027715;28;20234;-88
2022/09/29 09:26:11;;;;;;;14.10;9.77;;;;;;;14.25;73.72;100103.50;5026818;28;20073;-88
2022/09/29 09:28:41;;;;;;;12.97;9.73;;;;;;;14.53;73.31;100117.97;5027151;28;20025;-88
2022/09/29 09:31:22;;;;;;;13.27;9.30;;;;;;;14.79;71.04;100115.53;5018306;28;20342;-87
2022/09/29 09:34:12;;;;;;;14.07;8.37;;;;;;;15.06;73.06;100114.72;5026519;28;20119;-87
2022/09/29 09:36:45;;;;;;;14.97;8.90;;;;;;;15.10;70.20;100116.66;5009712;28;20068;-90
2022/09/29 09:39:46;;;;;;;10.73;7.80;;;;;;;15.15;71.02;100118.59;5027562;28;20084;-87
2022/09/29 09:42:17;;;;;;;11.30;8.77;;;;;;;15.33;70.35;100115.47;5018556;28;20242;-88
2022/09/29 09:44:51;;;;;;;10.77;7.47;;;;;;;15.13;67.41;100115.31;5030106;28;20047;-88
2022/09/29 09:47:41;;;;;;;8.75;7.30;;;;;;;15.18;67.03;100115.34;5030980;28;20060;-89
2022/09/29 09:50:15;;;;;;;10.03;7.40;;;;;;;14.88;68.77;100124.91;5022308;28;20082;-87
2022/09/29 09:52:48;;;;;;;;;;;;;;;15.54;71.67;100123.78;5031637;28;20087;-87
2022/09/29 09:55:20;;;;;;;7.23;5.67;;;;;;;14.86;66.83;100118.88;5022818;28;19925;-87
2022/09/29 09:57:59;;;;;;;6.87;5.90;;;;;;;14.90;68.43;100121.94;5021774;28;20517;-86
2022/09/29 10:00:54;;;;;;;7.97;5.77;;;;;;;15.29;70.33;100119.81;5031021;28;20461;-87
2022/09/29 10:03:19;;;;;;;9.10;6.93;;;;;;;15.05;67.36;100113.88;5023764;28;20049;-85
2022/09/29 10:05:47;;;;;;;10.05;6.93;;;;;;;15.31;67.93;100127.72;5030896;28;20091;-84
2022/09/29 10:08:51;;;;;;;8.95;6.85;;;;;;;15.14;67.62;100125.97;5030758;28;20041;-85
2022/09/29 10:11:26;;;;;;;6.35;5.57;;;;;;;15.34;68.48;100129.97;4962872;28;20031;-85
2022/09/29 10:14:15;;;;;;;9.07;5.35;;;;;;;15.40;66.40;100130.81;5020192;28;20044;-84
2022/09/29 10:16:40;;;;;;;7.65;5.40;;;;;;;15.43;64.83;100136.56;5030676;28;20468;-84
2022/09/29 10:19:06;;;;;;;5.20;4.70;;;;;;;15.48;65.41;100138.50;5031001;28;20056;-85
2022/09/29 10:21:31;;;;;;;7.43;5.10;;;;;;;15.81;62.57;100136.56;5030977;28;20477;-85
2022/09/29 10:24:01;;;;;;;8.30;5.53;;;;;;;16.15;62.87;100137.00;5030976;28;20128;-86
2022/09/29 10:26:39;;;;;;;6.25;3.35;;;;;;;16.42;64.48;100143.41;5030848;28;20044;-85
2022/09/29 10:29:23;;;;;;;4.55;3.58;;;;;;;16.69;62.36;100145.97;5005342;28;20029;-85
2022/09/29 10:32:07;;;;;;;3.85;3.45;;;;;;;16.63;62.98;100152.50;5029784;28;20245;-87
2022/09/29 10:34:36;;;;;;;3.10;2.78;;;;;;;16.33;57.54;100149.41;5031289;28;20032;-84
2022/09/29 10:37:03;;;;;;;4.15;3.05;;;;;;;16.80;58.61;100155.00;5030705;28;20049;-85
2022/09/29 10:39:32;;;;;;;2.90;2.30;;;;;;;16.77;56.37;100148.16;5030395;28;20403;-85
2022/09/29 10:41:57;;;;;;;3.10;2.80;;;;;;;16.46;56.63;100155.47;5030587;28;20044;-84
2022/09/29 10:44:23;;;;;;;3.45;2.80;;;;;;;16.34;58.20;100145.56;5031180;28;20036;-85
2022/09/29 10:46:54;;;;;;;3.28;2.50;;;;;;;16.82;59.01;100155.56;5030214;28;20044;-85
2022/09/29 10:49:27;;;;;;;3.05;2.78;;;;;;;16.68;56.80;100147.84;5005807;28;20435;-85
2022/09/29 10:52:06;;;;;;;3.25;2.88;;;;;;;16.80;59.58;100153.09;5030075;28;20412;-84
2022/09/29 10:54:38;;;;;;;3.80;2.70;;;;;;;16.88;57.77;100154.47;5030150;28;20807;-85
2022/09/29 10:57:12;;;;;;;3.40;2.60;;;;;;;16.82;58.22;100150.91;5029167;28;20036;-86
2022/09/29 10:59:49;;;;;;;5.60;3.40;;;;;;;17.14;57.51;100149.88;5030406;28;20122;-85
2022/09/29 11:02:34;;;;;;;4.32;3.60;;;;;;;16.81;56.98;100157.47;5030411;28;20026;-83
2022/09/29 11:05:01;;;;;;;;;;;;;;;17.31;57.08;100151.53;5030768;28;20297;-84
2022/09/29 11:07:28;;;;;;;5.63;3.35;;;;;;;16.91;60.21;100148.50;5030090;28;19951;-85
2022/09/29 11:09:54;;;;;;;4.75;3.10;;;;;;;16.84;56.79;100154.19;5030286;28;20029;-85
2022/09/29 11:12:38;;;;;;;4.38;3.38;;;;;;;16.97;59.42;100150.16;5030989;28;20044;-86
2022/09/29 11:15:27;;;;;;;;;;;;;;;17.99;56.50;100150.38;5029688;28;20053;-86
2022/09/29 11:17:55;;;;;;;3.55;3.15;;;;;;;17.10;54.47;100156.19;5029521;28;20011;-86
2022/09/29 11:20:25;;;;;;;5.30;3.65;;;;;;;17.03;53.89;100151.78;5033080;28;20040;-85
2022/09/29 11:23:10;;;;;;;6.15;3.70;;;;;;;16.87;58.05;100153.63;5037257;28;20048;-85
2022/09/29 11:25:51;;;;;;;4.63;3.50;;;;;;;16.85;56.95;100160.50;5041793;28;20027;-84
2022/09/29 11:28:29;;;;;;;5.18;3.05;;;;;;;17.01;54.96;100159.47;5033439;28;20529;-85
2022/09/29 11:31:00;;;;;;;2.70;2.50;;;;;;;16.41;54.99;100150.78;5046301;28;20119;-85